createdAt,value
2022-08-07T00:01:44.686Z,15.70
2022-08-07T00:04:00.833Z,15.62
2022-08-07T00:06:33.648Z,15.67
2022-08-07T00:09:16.807Z,15.59
2022-08-07T00:11:55.615Z,15.45
2022-08-07T00:14:25.309Z,15.49
2022-08-07T00:16:57.524Z,15.43
2022-08-07T00:19:26.014Z,15.43
2022-08-07T00:22:03.380Z,15.27
2022-08-07T00:24:31.751Z,15.28
2022-08-07T00:27:07.144Z,15.28
2022-08-07T00:29:37.046Z,15.30
2022-08-07T00:32:05.827Z,15.24
2022-08-07T00:34:33.499Z,15.12
2022-08-07T00:37:02.891Z,15.10
2022-08-07T00:39:32.037Z,15.00
2022-08-07T00:42:04.976Z,15.03
2022-08-07T00:44:33.810Z,14.98
2022-08-07T00:47:06.380Z,15.00
2022-08-07T00:50:20.193Z,15.11
2022-08-07T00:52:29.229Z,15.07
2022-08-07T00:55:04.984Z,15.24
2022-08-07T00:57:37.188Z,15.15
2022-08-07T01:00:08.279Z,15.00
2022-08-07T01:02:35.627Z,15.17
2022-08-07T01:05:18.840Z,15.05
2022-08-07T01:07:46.268Z,14.91
2022-08-07T01:10:17.062Z,14.94
2022-08-07T01:12:54.178Z,14.83
2022-08-07T01:15:23.106Z,14.63
2022-08-07T01:18:09.721Z,14.62
2022-08-07T01:20:44.663Z,14.59
2022-08-07T01:23:34.635Z,14.63
2022-08-07T01:26:08.352Z,14.63
2022-08-07T01:28:41.695Z,14.66
2022-08-07T01:31:15.214Z,14.48
2022-08-07T01:33:56.141Z,14.39
2022-08-07T01:36:33.239Z,14.35
2022-08-07T01:39:00.428Z,14.25
2022-08-07T01:41:27.821Z,14.21
2022-08-07T01:43:54.511Z,14.09
2022-08-07T01:46:21.385Z,14.04
2022-08-07T01:48:49.139Z,14.15
2022-08-07T01:52:01.010Z,14.16
2022-08-07T01:54:19.190Z,14.26
2022-08-07T01:57:01.481Z,14.25
2022-08-07T01:59:43.804Z,14.14
2022-08-07T02:02:32.668Z,14.15
2022-08-07T02:05:07.538Z,14.08
2022-08-07T02:07:50.432Z,14.00
2022-08-07T02:10:22.398Z,14.02
2022-08-07T02:12:50.290Z,14.22
2022-08-07T02:15:22.724Z,14.04
2022-08-07T02:17:51.800Z,14.05
2022-08-07T02:20:23.878Z,13.93
2022-08-07T02:22:59.913Z,13.93
2022-08-07T02:26:10.547Z,14.01
2022-08-07T02:28:24.588Z,14.05
2022-08-07T02:30:54.963Z,13.97
2022-08-07T02:33:24.793Z,13.84
2022-08-07T02:36:29.409Z,13.85
2022-08-07T02:39:01.055Z,14.02
2022-08-07T02:41:33.581Z,13.85
2022-08-07T02:44:05.070Z,13.87
2022-08-07T02:46:34.220Z,13.78
2022-08-07T02:49:05.586Z,13.64
2022-08-07T02:51:42.510Z,13.60
2022-08-07T02:54:18.403Z,13.57
2022-08-07T02:56:47.973Z,13.64
2022-08-07T02:59:19.743Z,13.65
2022-08-07T03:01:52.049Z,13.73
2022-08-07T03:04:24.025Z,13.63
2022-08-07T03:06:52.700Z,13.51
2022-08-07T03:09:43.870Z,13.51
2022-08-07T03:12:21.781Z,13.54
2022-08-07T03:14:52.197Z,13.39
2022-08-07T03:17:19.918Z,13.33
2022-08-07T03:19:52.842Z,13.29
2022-08-07T03:22:24.144Z,13.20
2022-08-07T03:24:57.241Z,13.11
2022-08-07T03:27:30.355Z,13.22
2022-08-07T03:29:58.704Z,13.18
2022-08-07T03:32:31.294Z,13.13
2022-08-07T03:35:17.354Z,13.20
2022-08-07T03:37:54.119Z,13.15
2022-08-07T03:40:23.464Z,13.23
2022-08-07T03:42:55.360Z,13.22
2022-08-07T03:45:31.092Z,13.19
2022-08-07T03:47:59.209Z,13.09
2022-08-07T03:50:28.572Z,12.99
2022-08-07T03:52:58.357Z,12.91
2022-08-07T03:55:53.371Z,12.72
2022-08-07T03:59:04.710Z,12.68
2022-08-07T04:01:02.058Z,12.64
2022-08-07T04:03:29.114Z,12.58
2022-08-07T04:06:37.296Z,12.75
2022-08-07T04:09:05.981Z,12.68
2022-08-07T04:12:21.536Z,12.58
2022-08-07T04:14:38.401Z,12.53
2022-08-07T04:17:20.583Z,12.48
2022-08-07T04:19:52.939Z,12.44
2022-08-07T04:22:27.550Z,12.53
2022-08-07T04:24:56.136Z,12.65
2022-08-07T04:27:25.840Z,12.63
2022-08-07T04:30:02.230Z,12.54
2022-08-07T04:32:34.507Z,12.55
2022-08-07T04:35:06.399Z,12.60
2022-08-07T04:38:01.091Z,12.51
2022-08-07T04:40:26.869Z,12.61
2022-08-07T04:43:01.253Z,12.71
2022-08-07T04:46:00.328Z,12.68
2022-08-07T04:48:40.388Z,12.67
2022-08-07T04:51:27.718Z,12.65
2022-08-07T04:54:16.050Z,12.82
2022-08-07T04:58:16.317Z,12.85
2022-08-07T05:00:11.563Z,12.91
2022-08-07T05:03:02.917Z,12.99
2022-08-07T05:05:52.171Z,13.02
2022-08-07T05:08:59.047Z,13.05
2022-08-07T05:11:57.276Z,13.13
2022-08-07T05:14:52.256Z,13.11
2022-08-07T05:17:51.829Z,13.16
2022-08-07T05:20:09.859Z,13.37
2022-08-07T05:22:39.046Z,13.40
2022-08-07T05:25:08.461Z,13.40
2022-08-07T05:28:15.901Z,13.48
2022-08-07T05:30:32.415Z,13.53
2022-08-07T05:33:05.065Z,13.53
2022-08-07T05:35:41.957Z,13.53
2022-08-07T05:38:10.612Z,13.58
2022-08-07T05:40:50.632Z,13.65
2022-08-07T05:43:19.284Z,13.71
2022-08-07T05:46:06.585Z,13.77
2022-08-07T05:48:34.055Z,13.75
2022-08-07T05:51:04.267Z,14.02
2022-08-07T05:54:11.908Z,14.12
2022-08-07T05:56:19.754Z,14.22
2022-08-07T05:58:49.246Z,14.30
2022-08-07T06:01:20.736Z,14.35
2022-08-07T06:03:56.940Z,14.44
2022-08-07T06:06:29.503Z,14.70
2022-08-07T06:08:57.461Z,14.70
2022-08-07T06:11:25.207Z,14.77
2022-08-07T06:14:13.740Z,14.93
2022-08-07T06:16:40.094Z,15.04
2022-08-07T06:19:08.042Z,15.04
2022-08-07T06:22:15.684Z,15.18
2022-08-07T06:24:48.190Z,15.27
2022-08-07T06:27:59.852Z,15.42
2022-08-07T06:30:32.064Z,15.52
2022-08-07T06:32:57.486Z,15.79
2022-08-07T06:35:23.934Z,15.90
2022-08-07T06:37:58.224Z,16.10
2022-08-07T06:40:34.307Z,16.07
2022-08-07T06:43:04.388Z,16.17
2022-08-07T06:45:47.690Z,16.10
2022-08-07T06:48:14.433Z,16.24
2022-08-07T06:50:43.281Z,16.32
2022-08-07T06:55:29.249Z,16.41
2022-08-07T06:56:15.446Z,16.51
2022-08-07T07:00:13.187Z,16.69
2022-08-07T07:01:33.267Z,16.76
2022-08-07T07:04:28.080Z,16.71
2022-08-07T07:07:00.993Z,16.96
2022-08-07T07:09:31.176Z,17.17
2022-08-07T07:12:35.266Z,17.23
2022-08-07T07:15:24.104Z,17.46
2022-08-07T07:17:55.242Z,17.69
2022-08-07T07:20:33.532Z,17.68
2022-08-07T07:24:08.079Z,17.79
2022-08-07T07:26:34.088Z,17.88
2022-08-07T07:29:28.413Z,17.99
2022-08-07T07:31:44.660Z,18.02
2022-08-07T07:34:19.915Z,18.19
2022-08-07T07:36:53.787Z,18.41
2022-08-07T07:39:25.639Z,18.43
2022-08-07T07:42:08.816Z,18.33
2022-08-07T07:44:43.552Z,18.39
2022-08-07T07:47:15.890Z,18.58
2022-08-07T07:50:32.444Z,18.85
2022-08-07T07:52:48.428Z,19.04
2022-08-07T07:55:17.963Z,19.05
2022-08-07T07:57:51.901Z,18.99
2022-08-07T08:00:29.683Z,19.09
2022-08-07T08:03:16.603Z,19.64
2022-08-07T08:05:54.131Z,21.62
2022-08-07T08:08:34.463Z,22.25
2022-08-07T08:11:08.117Z,23.63
2022-08-07T08:13:52.749Z,21.85
2022-08-07T08:16:26.181Z,24.65
2022-08-07T08:18:57.703Z,24.25
2022-08-07T08:22:02.798Z,24.49
2022-08-07T08:24:57.109Z,24.61
2022-08-07T08:27:34.587Z,24.99
2022-08-07T08:30:14.413Z,25.95
2022-08-07T08:32:59.495Z,26.28
2022-08-07T08:35:28.726Z,25.85
2022-08-07T08:38:06.818Z,25.23
2022-08-07T08:40:47.015Z,24.10
2022-08-07T08:43:42.937Z,25.37
2022-08-07T08:46:38.918Z,26.28
2022-08-07T08:49:16.621Z,23.94
2022-08-07T08:52:13.160Z,25.15
2022-08-07T08:54:49.803Z,25.24
2022-08-07T08:57:27.429Z,24.16
2022-08-07T09:00:02.396Z,25.00
2022-08-07T09:02:49.675Z,24.13
2022-08-07T09:05:50.546Z,24.86
2022-08-07T09:08:41.253Z,25.84
2022-08-07T09:11:24.493Z,27.08
2022-08-07T09:14:34.789Z,29.23
2022-08-07T09:17:03.372Z,27.21
2022-08-07T09:19:55.168Z,25.57
2022-08-07T09:24:32.441Z,25.00
2022-08-07T09:25:42.075Z,25.57
2022-08-07T09:30:03.759Z,26.04
2022-08-07T09:31:27.653Z,27.93
2022-08-07T09:34:21.503Z,28.98
2022-08-07T09:37:14.314Z,28.44
2022-08-07T09:39:55.161Z,29.11
2022-08-07T09:42:54.269Z,29.37
2022-08-07T09:47:24.823Z,30.21
2022-08-07T09:48:30.088Z,30.35
2022-08-07T09:52:15.459Z,29.59
2022-08-07T09:54:40.145Z,29.33
2022-08-07T09:57:21.664Z,31.24
2022-08-07T10:00:07.726Z,28.87
2022-08-07T10:04:03.067Z,29.23
2022-08-07T10:06:27.791Z,29.32
2022-08-07T10:09:00.244Z,30.59
2022-08-07T10:12:15.481Z,29.32
2022-08-07T10:15:03.988Z,29.63
2022-08-07T10:18:00.856Z,29.63
2022-08-07T10:21:08.676Z,29.97
2022-08-07T10:24:21.335Z,28.84
2022-08-07T10:27:10.449Z,29.46
2022-08-07T10:30:06.566Z,29.00
2022-08-07T10:33:08.393Z,28.60
2022-08-07T10:35:55.811Z,29.63
2022-08-07T10:38:47.903Z,29.88
2022-08-07T10:41:51.350Z,30.24
2022-08-07T10:44:45.431Z,31.09
2022-08-07T10:47:53.683Z,31.30
2022-08-07T10:50:25.663Z,30.53
2022-08-07T10:53:05.119Z,30.68
2022-08-07T10:56:04.200Z,31.64
2022-08-07T10:58:59.616Z,29.43
2022-08-07T11:02:12.475Z,29.93
2022-08-07T11:05:24.530Z,31.16
2022-08-07T11:08:31.343Z,31.27
2022-08-07T11:11:20.193Z,31.12
2022-08-07T11:14:57.057Z,31.70
2022-08-07T11:17:02.184Z,29.47
2022-08-07T11:19:46.450Z,29.09
2022-08-07T11:22:38.238Z,30.89
2022-08-07T11:25:41.293Z,31.17
2022-08-07T11:28:26.965Z,32.57
2022-08-07T11:31:03.183Z,31.51
2022-08-07T11:33:59.356Z,30.44
2022-08-07T11:36:45.584Z,28.94
2022-08-07T11:39:59.232Z,30.45
2022-08-07T11:42:37.701Z,30.94
2022-08-07T11:45:36.819Z,29.95
2022-08-07T11:49:10.282Z,31.12
2022-08-07T11:52:12.580Z,31.99
2022-08-07T11:54:56.210Z,31.24
2022-08-07T11:58:00.111Z,31.45
2022-08-07T12:01:02.584Z,32.83
2022-08-07T12:03:53.394Z,31.92
2022-08-07T12:06:55.396Z,32.09
2022-08-07T12:09:41.554Z,31.19
2022-08-07T12:12:17.749Z,32.99
2022-08-07T12:15:01.149Z,33.35
2022-08-07T12:17:58.989Z,31.57
2022-08-07T12:20:33.242Z,30.78
2022-08-07T12:23:16.358Z,30.68
2022-08-07T12:26:23.370Z,29.81
2022-08-07T12:29:03.605Z,30.71
2022-08-07T12:32:02.253Z,30.63
2022-08-07T12:34:35.915Z,29.33
2022-08-07T12:37:08.629Z,29.45
2022-08-07T12:39:52.217Z,30.35
2022-08-07T12:42:27.511Z,31.92
2022-08-07T12:44:57.986Z,31.58
2022-08-07T12:47:45.598Z,32.43
2022-08-07T12:50:33.985Z,32.19
2022-08-07T12:53:17.389Z,33.10
2022-08-07T12:56:12.305Z,33.55
2022-08-07T12:58:42.926Z,33.00
2022-08-07T13:01:42.062Z,31.53
2022-08-07T13:04:34.631Z,31.50
2022-08-07T13:08:12.638Z,29.05
2022-08-07T13:10:39.603Z,30.75
2022-08-07T13:13:46.874Z,31.95
2022-08-07T13:16:36.693Z,32.04
2022-08-07T13:19:21.945Z,33.17
2022-08-07T13:22:19.702Z,31.37
2022-08-07T13:25:00.470Z,29.59
2022-08-07T13:28:11.078Z,30.62
2022-08-07T13:30:41.246Z,31.00
2022-08-07T13:34:30.139Z,31.82
2022-08-07T13:36:40.959Z,31.00
2022-08-07T13:39:28.372Z,31.31
2022-08-07T13:42:03.095Z,31.42
2022-08-07T13:44:36.811Z,31.55
2022-08-07T13:47:09.340Z,31.85
2022-08-07T13:50:34.785Z,32.69
2022-08-07T13:52:41.080Z,32.69
2022-08-07T13:55:19.660Z,34.03
2022-08-07T13:58:27.870Z,32.67
2022-08-07T14:01:08.882Z,33.27
2022-08-07T14:04:07.352Z,33.92
2022-08-07T14:06:38.441Z,33.17
2022-08-07T14:09:06.357Z,33.03
2022-08-07T14:12:00.110Z,33.41
2022-08-07T14:14:41.108Z,32.35
2022-08-07T14:17:32.329Z,32.28
2022-08-07T14:20:42.635Z,32.65
2022-08-07T14:23:00.774Z,33.21
2022-08-07T14:25:39.427Z,33.68
2022-08-07T14:28:15.272Z,33.51
2022-08-07T14:30:51.886Z,33.44
2022-08-07T14:33:22.452Z,33.81
2022-08-07T14:36:03.102Z,34.02
2022-08-07T14:41:34.065Z,32.31
2022-08-07T14:44:16.221Z,32.70
2022-08-07T14:49:57.134Z,32.91
2022-08-07T14:52:27.803Z,33.37
2022-08-07T14:54:58.608Z,32.76
2022-08-07T14:57:54.912Z,32.80
2022-08-07T15:03:19.324Z,32.25
2022-08-07T15:05:54.236Z,31.41
2022-08-07T15:08:34.768Z,31.48
2022-08-07T15:11:06.251Z,32.18
2022-08-07T15:13:37.769Z,32.31
2022-08-07T15:16:11.085Z,32.83
2022-08-07T15:18:44.108Z,32.08
2022-08-07T15:25:15.127Z,31.98
2022-08-07T15:27:05.238Z,32.08
2022-08-07T15:30:10.104Z,31.68
2022-08-07T15:32:39.538Z,31.89
2022-08-07T15:35:17.205Z,32.12
2022-08-07T15:38:17.754Z,32.36
2022-08-07T15:40:35.734Z,30.97
2022-08-07T15:43:53.196Z,31.58
2022-08-07T15:49:11.975Z,32.33
2022-08-07T15:54:39.376Z,31.72
2022-08-07T15:57:10.813Z,32.06
2022-08-07T15:59:59.201Z,31.91
2022-08-07T16:02:29.060Z,32.02
2022-08-07T16:05:15.437Z,31.34
2022-08-07T16:08:31.234Z,31.74
2022-08-07T16:10:37.446Z,31.71
2022-08-07T16:13:57.544Z,32.18
2022-08-07T16:16:48.492Z,32.29
2022-08-07T16:19:41.868Z,31.78
2022-08-07T16:22:37.653Z,30.94
2022-08-07T16:25:54.831Z,31.19
2022-08-07T16:29:18.370Z,31.16
2022-08-07T16:31:57.154Z,31.41
2022-08-07T16:34:48.374Z,31.23
2022-08-07T16:38:04.470Z,29.90
2022-08-07T16:40:57.108Z,28.99
2022-08-07T16:44:46.259Z,29.91
2022-08-07T16:47:51.200Z,29.57
2022-08-07T16:50:39.245Z,29.49
2022-08-07T16:54:01.170Z,29.95
2022-08-07T16:56:32.291Z,30.15
2022-08-07T16:59:17.360Z,30.27
2022-08-07T17:02:09.022Z,30.41
2022-08-07T17:04:59.043Z,30.35
2022-08-07T17:07:55.916Z,29.63
2022-08-07T17:10:33.879Z,29.78
2022-08-07T17:13:03.462Z,29.59
2022-08-07T17:15:44.170Z,29.62
2022-08-07T17:18:36.697Z,29.20
2022-08-07T17:21:19.142Z,29.00
2022-08-07T17:24:23.830Z,29.16
2022-08-07T17:27:07.046Z,29.37
2022-08-07T17:30:14.765Z,29.29
2022-08-07T17:33:39.003Z,29.19
2022-08-07T17:36:19.959Z,28.77
2022-08-07T17:39:10.599Z,28.30
2022-08-07T17:42:04.102Z,28.40
2022-08-07T17:45:02.654Z,28.51
2022-08-07T17:47:38.165Z,28.27
2022-08-07T17:50:19.103Z,27.72
2022-08-07T17:53:00.486Z,27.73
2022-08-07T17:56:01.366Z,27.73
2022-08-07T17:58:30.494Z,27.69
2022-08-07T18:01:02.603Z,27.72
2022-08-07T18:04:04.673Z,27.31
2022-08-07T18:06:38.939Z,26.97
2022-08-07T18:09:16.214Z,26.80
2022-08-07T18:12:08.249Z,26.70
2022-08-07T18:14:44.937Z,26.49
2022-08-07T18:18:44.762Z,26.33
2022-08-07T18:21:10.405Z,26.36
2022-08-07T18:23:57.515Z,26.19
2022-08-07T18:26:44.792Z,25.89
2022-08-07T18:30:06.832Z,25.84
2022-08-07T18:33:10.850Z,25.70
2022-08-07T18:35:50.245Z,25.81
2022-08-07T18:38:59.651Z,25.61
2022-08-07T18:41:44.747Z,25.46
2022-08-07T18:45:45.032Z,25.19
2022-08-07T18:47:45.099Z,25.16
2022-08-07T18:50:39.182Z,25.03
2022-08-07T18:53:21.966Z,24.92
2022-08-07T18:56:37.820Z,24.79
2022-08-07T18:59:47.982Z,24.62
2022-08-07T19:02:45.061Z,24.41
2022-08-07T19:05:21.564Z,24.31
2022-08-07T19:07:58.879Z,24.35
2022-08-07T19:11:00.625Z,24.11
2022-08-07T19:13:58.789Z,23.97
2022-08-07T19:17:01.209Z,23.84
2022-08-07T19:19:37.792Z,23.73
2022-08-07T19:22:17.438Z,23.77
2022-08-07T19:24:49.953Z,23.69
2022-08-07T19:30:55.279Z,23.49
2022-08-07T19:31:04.456Z,23.46
2022-08-07T19:33:10.070Z,23.45
2022-08-07T19:35:40.282Z,23.49
2022-08-07T19:38:17.235Z,23.55
2022-08-07T19:40:50.360Z,23.41
2022-08-07T19:43:44.173Z,23.29
2022-08-07T19:46:16.072Z,23.14
2022-08-07T19:48:53.482Z,23.15
2022-08-07T19:51:51.311Z,23.08
2022-08-07T19:54:33.671Z,22.90
2022-08-07T19:57:51.327Z,22.81
2022-08-07T19:59:53.317Z,22.85
2022-08-07T20:02:51.820Z,22.91
2022-08-07T20:05:59.684Z,22.64
2022-08-07T20:08:24.394Z,22.67
2022-08-07T20:11:01.853Z,22.59
2022-08-07T20:13:53.468Z,22.57
2022-08-07T20:16:35.174Z,22.44
2022-08-07T20:19:05.257Z,22.46
2022-08-07T20:21:41.783Z,22.43
2022-08-07T20:24:18.080Z,22.25
2022-08-07T20:26:50.468Z,22.12
2022-08-07T20:29:49.129Z,22.00
2022-08-07T20:32:22.906Z,22.09
2022-08-07T20:34:54.970Z,22.12
2022-08-07T20:37:23.696Z,21.90
2022-08-07T20:40:03.293Z,21.95
2022-08-07T20:42:33.427Z,21.90
2022-08-07T20:45:01.300Z,21.83
2022-08-07T20:47:56.911Z,21.78
2022-08-07T20:50:20.512Z,21.90
2022-08-07T20:52:52.351Z,21.69
2022-08-07T20:55:23.559Z,21.75
2022-08-07T20:58:04.123Z,21.69
2022-08-07T21:00:44.443Z,21.62
2022-08-07T21:03:15.671Z,21.69
2022-08-07T21:05:54.918Z,21.45
2022-08-07T21:08:41.049Z,21.42
2022-08-07T21:11:14.221Z,21.19
2022-08-07T21:14:16.506Z,21.14
2022-08-07T21:16:46.962Z,21.24
2022-08-07T21:19:32.295Z,21.02
2022-08-07T21:22:15.384Z,21.02
2022-08-07T21:25:12.278Z,20.96
2022-08-07T21:28:02.475Z,21.00
2022-08-07T21:30:42.785Z,21.00
2022-08-07T21:33:38.303Z,20.96
2022-08-07T21:36:31.124Z,21.00
2022-08-07T21:39:45.494Z,20.87
2022-08-07T21:42:46.807Z,20.79
2022-08-07T21:46:11.114Z,20.77
2022-08-07T21:48:33.612Z,20.72
2022-08-07T21:51:19.763Z,20.82
2022-08-07T21:53:53.966Z,20.69
2022-08-07T21:56:47.915Z,20.55
2022-08-07T22:00:02.726Z,20.28
2022-08-07T22:02:30.807Z,20.45
2022-08-07T22:05:00.715Z,20.45
2022-08-07T22:07:31.557Z,20.25
2022-08-07T22:10:06.005Z,20.04
2022-08-07T22:12:49.588Z,20.11
2022-08-07T22:16:41.928Z,20.04
2022-08-07T22:18:35.453Z,19.80
2022-08-07T22:21:20.445Z,19.84
2022-08-07T22:23:52.906Z,19.83
2022-08-07T22:26:25.514Z,19.80
2022-08-07T22:29:14.991Z,19.97
2022-08-07T22:32:00.252Z,19.74
2022-08-07T22:34:49.702Z,19.66
2022-08-07T22:38:03.431Z,19.50
2022-08-07T22:40:50.092Z,19.53
2022-08-07T22:43:38.624Z,19.64
2022-08-07T22:47:03.426Z,19.55
2022-08-07T22:49:24.977Z,19.49
2022-08-07T22:52:39.643Z,19.55
2022-08-07T22:55:44.488Z,19.59
2022-08-07T22:58:48.373Z,19.57
2022-08-07T23:01:50.912Z,19.19
2022-08-07T23:04:58.091Z,19.15
2022-08-07T23:07:45.370Z,19.08
2022-08-07T23:10:39.561Z,19.19
2022-08-07T23:13:19.824Z,19.16
2022-08-07T23:16:06.185Z,19.18
2022-08-07T23:19:48.025Z,19.12
2022-08-07T23:22:29.565Z,19.09
2022-08-07T23:25:29.391Z,19.16
2022-08-07T23:28:28.451Z,19.12
2022-08-07T23:32:48.960Z,19.06
2022-08-07T23:34:38.311Z,19.09
2022-08-07T23:37:24.390Z,18.98
2022-08-07T23:40:23.069Z,18.97
2022-08-07T23:43:37.923Z,18.83
2022-08-07T23:46:12.527Z,18.80
2022-08-07T23:49:16.600Z,18.66
2022-08-07T23:53:00.188Z,18.54
2022-08-07T23:54:55.805Z,18.44
2022-08-07T23:57:44.166Z,18.51
